Terminal Aerodrome Forecast
Issued by NWS Shreveport, LA

Home | Current Version | Previous Version | Text Only | Print | Product List | Glossary On
Versions: 1 2 3 4 5 6 7 8 9 10 11 12 13 14 15 16
314
FTUS44 KSHV 272356
TAFTXK
TAF
KTXK 272356Z 2800/2824 VRB04KT P6SM SCT045
     FM281100 VRB03KT 4SM BR VCSH FEW005 BKN045
      TEMPO 2812/2814 4SM -TSRA BR BKN020CB BKN050
     FM281400 VRB04KT P6SM SCT035 BKN080
     FM281700 07008KT P6SM SCT040=

USA.gov is the U.S. government's official web portal to all federal, state and local government web resources and services.